OO27X KDEN-KASE
Flight info
| Callsign | OO27X |
|---|---|
| Flight time | N/A |
| Altitude | 38000 |
| Route | BAYLR6 TEHRU |
| Aircraft | C17/H-SDE1E2FGHIJ5RTUWXY/LB1D1 |
Departure
| Time | 2026-05-06 14:29 |
|---|---|
| Airport | Denver International Airport (KDEN) |
Arrival
| Time | N/A |
|---|---|
| Airport | Aspen-Pitkin County Airport (Sardy Field) (KASE) |
| Time | Latitude | Longitude | Altitude | Speed | Heading |
|---|---|---|---|---|---|
| 2026-05-06 14:16 | 39.85766 | -104.68310 | 5385 ft | 0 kts | 270° |
| 2026-05-06 14:20 | 39.85766 | -104.68278 | 5382 ft | 6 kts | 270° |
| 2026-05-06 14:21 | 39.85766 | -104.68245 | 5382 ft | 1 kts | 216° |
| 2026-05-06 14:21 | 39.85761 | -104.68242 | 5385 ft | 3 kts | 174° |
| 2026-05-06 14:21 | 39.85714 | -104.68217 | 5388 ft | 0 kts | 158° |
| 2026-05-06 14:22 | 39.85683 | -104.68203 | 5391 ft | 14 kts | 167° |
| 2026-05-06 14:22 | 39.85529 | -104.68205 | 5392 ft | 29 kts | 180° |
| 2026-05-06 14:22 | 39.85305 | -104.68210 | 5394 ft | 30 kts | 182° |
| 2026-05-06 14:22 | 39.85209 | -104.68247 | 5395 ft | 3 kts | 264° |
| 2026-05-06 14:23 | 39.85209 | -104.68359 | 5391 ft | 18 kts | 271° |
| 2026-05-06 14:23 | 39.85207 | -104.68531 | 5384 ft | 6 kts | 269° |
| 2026-05-06 14:23 | 39.85207 | -104.68532 | 5384 ft | 0 kts | 269° |
| 2026-05-06 14:24 | 39.85207 | -104.68547 | 5383 ft | 4 kts | 269° |
| 2026-05-06 14:24 | 39.85207 | -104.68580 | 5382 ft | 7 kts | 269° |
| 2026-05-06 14:24 | 39.85205 | -104.68688 | 5377 ft | 11 kts | 269° |
| 2026-05-06 14:25 | 39.85205 | -104.68779 | 5371 ft | 1 kts | 269° |
| 2026-05-06 14:26 | 39.85200 | -104.68885 | 5367 ft | 36 kts | 269° |
| 2026-05-06 14:27 | 39.85201 | -104.69265 | 5354 ft | 41 kts | 272° |
| 2026-05-06 14:27 | 39.85218 | -104.69518 | 5354 ft | 0 kts | 277° |
| 2026-05-06 14:27 | 39.85215 | -104.69485 | 5355 ft | 4 kts | 277° |
| 2026-05-06 14:27 | 39.85222 | -104.69618 | 5361 ft | 14 kts | 280° |
| 2026-05-06 14:28 | 39.85248 | -104.69658 | 5361 ft | 1 kts | 322° |
| 2026-05-06 14:28 | 39.85282 | -104.69673 | 5362 ft | 9 kts | 350° |
| 2026-05-06 14:28 | 39.85370 | -104.69668 | 5364 ft | 51 kts | 2° |
| 2026-05-06 14:28 | 39.86097 | -104.69650 | 5372 ft | 148 kts | 1° |
| 2026-05-06 14:29 | 39.87347 | -104.69637 | 5411 ft | 202 kts | 359° |
| 2026-05-06 14:29 | 39.88851 | -104.69637 | 5783 ft | 226 kts | 356° |
| 2026-05-06 14:29 | 39.90291 | -104.70401 | 6651 ft | 237 kts | 320° |
| 2026-05-06 14:29 | 39.91052 | -104.72279 | 7644 ft | 238 kts | 278° |
| 2026-05-06 14:30 | 39.90733 | -104.74336 | 8800 ft | 232 kts | 239° |
| 2026-05-06 14:30 | 39.89566 | -104.75635 | 9638 ft | 226 kts | 197° |
| 2026-05-06 14:30 | 39.87935 | -104.76040 | 10088 ft | 256 kts | 185° |
| 2026-05-06 14:30 | 39.86129 | -104.76728 | 10166 ft | 284 kts | 210° |
| 2026-05-06 14:31 | 39.84603 | -104.78499 | 10172 ft | 304 kts | 227° |
| 2026-05-06 14:31 | 39.83239 | -104.80662 | 10157 ft | 311 kts | 231° |
| 2026-05-06 14:31 | 39.81916 | -104.82908 | 10153 ft | 313 kts | 232° |
| 2026-05-06 14:31 | 39.80607 | -104.85151 | 10144 ft | 308 kts | 232° |
| 2026-05-06 14:32 | 39.79333 | -104.87333 | 10138 ft | 299 kts | 232° |
| 2026-05-06 14:32 | 39.78079 | -104.89492 | 10172 ft | 302 kts | 234° |
| 2026-05-06 14:32 | 39.77196 | -104.92019 | 10560 ft | 313 kts | 252° |
| 2026-05-06 14:32 | 39.76563 | -104.94693 | 11258 ft | 314 kts | 254° |
| 2026-05-06 14:33 | 39.75966 | -104.97436 | 11947 ft | 317 kts | 255° |
| 2026-05-06 14:33 | 39.75367 | -105.00212 | 12619 ft | 321 kts | 254° |
| 2026-05-06 14:33 | 39.74684 | -105.02990 | 13234 ft | 324 kts | 249° |
| 2026-05-06 14:33 | 39.73835 | -105.05751 | 13920 ft | 325 kts | 247° |
| 2026-05-06 14:34 | 39.72967 | -105.08424 | 14543 ft | 325 kts | 247° |
| 2026-05-06 14:34 | 39.72086 | -105.11112 | 15214 ft | 323 kts | 247° |
| 2026-05-06 14:34 | 39.71203 | -105.13801 | 15797 ft | 324 kts | 248° |
| 2026-05-06 14:34 | 39.70318 | -105.16496 | 16397 ft | 324 kts | 248° |
| 2026-05-06 14:35 | 39.69436 | -105.19183 | 16998 ft | 324 kts | 249° |
| 2026-05-06 14:35 | 39.68553 | -105.21869 | 17576 ft | 323 kts | 249° |
| 2026-05-06 14:35 | 39.67670 | -105.24556 | 18145 ft | 323 kts | 249° |
| 2026-05-06 14:35 | 39.66785 | -105.27245 | 18655 ft | 324 kts | 249° |
| 2026-05-06 14:36 | 39.65899 | -105.29934 | 19079 ft | 326 kts | 249° |
| 2026-05-06 14:36 | 39.65013 | -105.32622 | 19447 ft | 329 kts | 249° |
| 2026-05-06 14:36 | 39.64109 | -105.35363 | 19864 ft | 331 kts | 249° |
| 2026-05-06 14:36 | 39.63201 | -105.38114 | 20144 ft | 334 kts | 249° |
| 2026-05-06 14:37 | 39.62278 | -105.40916 | 20357 ft | 340 kts | 249° |
| 2026-05-06 14:37 | 39.61344 | -105.43748 | 20656 ft | 343 kts | 249° |
| 2026-05-06 14:37 | 39.60403 | -105.46598 | 20988 ft | 344 kts | 249° |
| 2026-05-06 14:37 | 39.59459 | -105.49448 | 21307 ft | 345 kts | 248° |
| 2026-05-06 14:38 | 39.58507 | -105.52308 | 21610 ft | 346 kts | 248° |
| 2026-05-06 14:38 | 39.57556 | -105.55163 | 22023 ft | 344 kts | 248° |
| 2026-05-06 14:38 | 39.56613 | -105.57988 | 22517 ft | 340 kts | 248° |
| 2026-05-06 14:38 | 39.55677 | -105.60806 | 22898 ft | 340 kts | 249° |
| 2026-05-06 14:39 | 39.54824 | -105.63671 | 23276 ft | 341 kts | 250° |
| 2026-05-06 14:39 | 39.54013 | -105.66575 | 23507 ft | 344 kts | 251° |
| 2026-05-06 14:39 | 39.53204 | -105.69510 | 23779 ft | 347 kts | 251° |
| 2026-05-06 14:39 | 39.52392 | -105.72453 | 24024 ft | 348 kts | 251° |
| 2026-05-06 14:40 | 39.51575 | -105.75408 | 24131 ft | 351 kts | 251° |
| 2026-05-06 14:40 | 39.50753 | -105.78375 | 24153 ft | 357 kts | 251° |
| 2026-05-06 14:40 | 39.49904 | -105.81424 | 24118 ft | 363 kts | 250° |
| 2026-05-06 14:40 | 39.49033 | -105.84520 | 24103 ft | 366 kts | 250° |
| 2026-05-06 14:41 | 39.48159 | -105.87632 | 24107 ft | 369 kts | 250° |
| 2026-05-06 14:41 | 39.47279 | -105.90771 | 24113 ft | 372 kts | 250° |
| 2026-05-06 14:41 | 39.46395 | -105.93929 | 24062 ft | 375 kts | 250° |
| 2026-05-06 14:41 | 39.45504 | -105.97112 | 24061 ft | 377 kts | 250° |
| 2026-05-06 14:42 | 39.44609 | -106.00308 | 24049 ft | 379 kts | 250° |
| 2026-05-06 14:42 | 39.43711 | -106.03510 | 24064 ft | 379 kts | 250° |
| 2026-05-06 14:42 | 39.42830 | -106.06650 | 24012 ft | 362 kts | 250° |
| 2026-05-06 14:42 | 39.41985 | -106.09663 | 23702 ft | 352 kts | 250° |
| 2026-05-06 14:43 | 39.41166 | -106.12583 | 23384 ft | 338 kts | 250° |
| 2026-05-06 14:43 | 39.40378 | -106.15389 | 23152 ft | 325 kts | 250° |
| 2026-05-06 14:43 | 39.39632 | -106.18046 | 22903 ft | 313 kts | 250° |
| 2026-05-06 14:43 | 39.38901 | -106.20642 | 22694 ft | 301 kts | 250° |
| 2026-05-06 14:44 | 39.38197 | -106.23141 | 22448 ft | 290 kts | 250° |
| 2026-05-06 14:44 | 39.37518 | -106.25550 | 22255 ft | 280 kts | 250° |
| 2026-05-06 14:44 | 39.36862 | -106.27874 | 22138 ft | 270 kts | 250° |
| 2026-05-06 14:45 | 39.35638 | -106.32351 | 21646 ft | 258 kts | 252° |
| 2026-05-06 14:45 | 39.35080 | -106.34543 | 21388 ft | 258 kts | 253° |
| 2026-05-06 14:45 | 39.34546 | -106.36759 | 21124 ft | 256 kts | 253° |
| 2026-05-06 14:45 | 39.34050 | -106.38943 | 20873 ft | 251 kts | 255° |
| 2026-05-06 14:46 | 39.33471 | -106.41056 | 20690 ft | 246 kts | 248° |
| 2026-05-06 14:46 | 39.32792 | -106.43044 | 20489 ft | 239 kts | 248° |
| 2026-05-06 14:46 | 39.32116 | -106.45144 | 18856 ft | 279 kts | 249° |
| 2026-05-06 14:46 | 39.31262 | -106.47675 | 16830 ft | 328 kts | 248° |
| 2026-05-06 14:47 | 39.30278 | -106.50458 | 15338 ft | 350 kts | 248° |
| 2026-05-06 14:47 | 39.29244 | -106.53293 | 14698 ft | 344 kts | 247° |
| 2026-05-06 14:47 | 39.28224 | -106.56017 | 14420 ft | 329 kts | 246° |
| 2026-05-06 14:47 | 39.27235 | -106.58591 | 13549 ft | 310 kts | 245° |
| 2026-05-06 14:48 | 39.26300 | -106.60980 | 12437 ft | 287 kts | 246° |
| 2026-05-06 14:48 | 39.25471 | -106.63186 | 11580 ft | 264 kts | 248° |
| 2026-05-06 14:48 | 39.25047 | -106.65245 | 11973 ft | 216 kts | 280° |
| 2026-05-06 14:48 | 39.25440 | -106.67002 | 13091 ft | 200 kts | 290° |
| 2026-05-06 14:49 | 39.25836 | -106.68701 | 14034 ft | 192 kts | 288° |
| 2026-05-06 14:49 | 39.26198 | -106.70397 | 13791 ft | 209 kts | 285° |
| 2026-05-06 14:49 | 39.26533 | -106.72272 | 13492 ft | 217 kts | 283° |
| 2026-05-06 14:49 | 39.26837 | -106.74202 | 13432 ft | 220 kts | 282° |
| 2026-05-06 14:50 | 39.27124 | -106.76118 | 13494 ft | 217 kts | 282° |
| 2026-05-06 14:50 | 39.27434 | -106.78031 | 13491 ft | 216 kts | 289° |
| 2026-05-06 14:50 | 39.28312 | -106.79529 | 13499 ft | 214 kts | 328° |
| 2026-05-06 14:50 | 39.29684 | -106.80283 | 13440 ft | 216 kts | 332° |
| 2026-05-06 14:51 | 39.31066 | -106.81144 | 13376 ft | 228 kts | 331° |
| 2026-05-06 14:51 | 39.32617 | -106.82004 | 13402 ft | 255 kts | 334° |
| 2026-05-06 14:51 | 39.34353 | -106.82843 | 13481 ft | 276 kts | 337° |
| 2026-05-06 14:51 | 39.36222 | -106.83610 | 13555 ft | 286 kts | 340° |
| 2026-05-06 14:52 | 39.38157 | -106.84258 | 13561 ft | 288 kts | 343° |
| 2026-05-06 14:52 | 39.40012 | -106.85125 | 13567 ft | 280 kts | 324° |
| 2026-05-06 14:52 | 39.41338 | -106.86882 | 13818 ft | 277 kts | 302° |
| 2026-05-06 14:52 | 39.42132 | -106.89078 | 14175 ft | 263 kts | 287° |
| 2026-05-06 14:53 | 39.42427 | -106.91341 | 14386 ft | 251 kts | 273° |
| 2026-05-06 14:53 | 39.42264 | -106.93557 | 14483 ft | 246 kts | 262° |
| 2026-05-06 14:53 | 39.41799 | -106.95655 | 14284 ft | 238 kts | 252° |
| 2026-05-06 14:53 | 39.41116 | -106.97590 | 14035 ft | 236 kts | 245° |
| 2026-05-06 14:54 | 39.40255 | -106.99388 | 13985 ft | 235 kts | 238° |
| 2026-05-06 14:54 | 39.39215 | -107.01052 | 14002 ft | 244 kts | 231° |
| 2026-05-06 14:54 | 39.37945 | -107.02648 | 14016 ft | 266 kts | 223° |
| 2026-05-06 14:54 | 39.36287 | -107.03929 | 13961 ft | 292 kts | 203° |
| 2026-05-06 14:55 | 39.34203 | -107.04223 | 13957 ft | 316 kts | 173° |
| 2026-05-06 14:55 | 39.32157 | -107.03100 | 13958 ft | 336 kts | 143° |
| 2026-05-06 14:55 | 39.30668 | -107.00754 | 13961 ft | 343 kts | 114° |
| 2026-05-06 14:55 | 39.30162 | -106.97771 | 13941 ft | 341 kts | 84° |
| 2026-05-06 14:56 | 39.30757 | -106.94868 | 13933 ft | 332 kts | 56° |
| 2026-05-06 14:56 | 39.32295 | -106.92755 | 13958 ft | 320 kts | 26° |
| 2026-05-06 14:56 | 39.34356 | -106.91926 | 13948 ft | 307 kts | 356° |
| 2026-05-06 14:56 | 39.36382 | -106.92530 | 13936 ft | 297 kts | 333° |
| 2026-05-06 14:57 | 39.38272 | -106.93622 | 14034 ft | 298 kts | 336° |
| 2026-05-06 14:57 | 39.40259 | -106.93890 | 14287 ft | 287 kts | 6° |
| 2026-05-06 14:57 | 39.42006 | -106.92677 | 14543 ft | 296 kts | 43° |
| 2026-05-06 14:57 | 39.42976 | -106.90289 | 14854 ft | 308 kts | 69° |
| 2026-05-06 14:58 | 39.43663 | -106.87646 | 15050 ft | 312 kts | 64° |
| 2026-05-06 14:58 | 39.44538 | -106.85071 | 15168 ft | 314 kts | 59° |
| 2026-05-06 14:58 | 39.45594 | -106.82618 | 15361 ft | 317 kts | 56° |
| 2026-05-06 14:58 | 39.46141 | -106.79884 | 15510 ft | 312 kts | 90° |
| 2026-05-06 14:59 | 39.45541 | -106.77286 | 15612 ft | 296 kts | 127° |
| 2026-05-06 14:59 | 39.44034 | -106.75669 | 15675 ft | 274 kts | 155° |
| 2026-05-06 14:59 | 39.42374 | -106.74535 | 15712 ft | 267 kts | 155° |
| 2026-05-06 14:59 | 39.40756 | -106.73372 | 15746 ft | 263 kts | 153° |
| 2026-05-06 15:00 | 39.39204 | -106.72222 | 15723 ft | 257 kts | 164° |
| 2026-05-06 15:00 | 39.37511 | -106.71923 | 15634 ft | 242 kts | 191° |
| 2026-05-06 15:00 | 39.35841 | -106.72088 | 15724 ft | 244 kts | 189° |
| 2026-05-06 15:00 | 39.34107 | -106.72257 | 15881 ft | 256 kts | 189° |
| 2026-05-06 15:01 | 39.32296 | -106.72444 | 16010 ft | 267 kts | 189° |
| 2026-05-06 15:01 | 39.30371 | -106.72551 | 16044 ft | 287 kts | 181° |
| 2026-05-06 15:01 | 39.28317 | -106.72269 | 16018 ft | 304 kts | 176° |
| 2026-05-06 15:01 | 39.26181 | -106.71873 | 16019 ft | 316 kts | 175° |
| 2026-05-06 15:02 | 39.23974 | -106.71479 | 16026 ft | 325 kts | 175° |
| 2026-05-06 15:02 | 39.21694 | -106.71116 | 16020 ft | 334 kts | 175° |
| 2026-05-06 15:02 | 39.19356 | -106.70744 | 16022 ft | 342 kts | 175° |
| 2026-05-06 15:02 | 39.17008 | -106.70378 | 16014 ft | 347 kts | 175° |
| 2026-05-06 15:03 | 39.14606 | -106.70007 | 16006 ft | 348 kts | 175° |
| 2026-05-06 15:03 | 39.12218 | -106.69449 | 15991 ft | 351 kts | 161° |
| 2026-05-06 15:03 | 39.10107 | -106.67898 | 15988 ft | 352 kts | 138° |
| 2026-05-06 15:03 | 39.08596 | -106.65450 | 15981 ft | 347 kts | 115° |
| 2026-05-06 15:04 | 39.07935 | -106.62559 | 15965 ft | 333 kts | 90° |
| 2026-05-06 15:04 | 39.08196 | -106.59654 | 15954 ft | 324 kts | 66° |
| 2026-05-06 15:04 | 39.09305 | -106.57198 | 15997 ft | 316 kts | 44° |
| 2026-05-06 15:04 | 39.10817 | -106.55141 | 15993 ft | 314 kts | 35° |
| 2026-05-06 15:05 | 39.12640 | -106.53663 | 16015 ft | 307 kts | 17° |
| 2026-05-06 15:05 | 39.14695 | -106.53164 | 16029 ft | 299 kts | 353° |
| 2026-05-06 15:05 | 39.16678 | -106.53778 | 16004 ft | 292 kts | 331° |
| 2026-05-06 15:05 | 39.18340 | -106.55365 | 15452 ft | 305 kts | 313° |
| 2026-05-06 15:06 | 39.19726 | -106.57418 | 14726 ft | 309 kts | 308° |
| 2026-05-06 15:06 | 39.21062 | -106.59573 | 14196 ft | 304 kts | 308° |
| 2026-05-06 15:06 | 39.22360 | -106.61656 | 14060 ft | 295 kts | 309° |
| 2026-05-06 15:06 | 39.23668 | -106.63739 | 14016 ft | 302 kts | 309° |
| 2026-05-06 15:07 | 39.24998 | -106.65849 | 14003 ft | 304 kts | 309° |
| 2026-05-06 15:07 | 39.26332 | -106.67957 | 14114 ft | 301 kts | 309° |
| 2026-05-06 15:07 | 39.27670 | -106.70046 | 14218 ft | 304 kts | 307° |
| 2026-05-06 15:07 | 39.29003 | -106.72163 | 14039 ft | 302 kts | 307° |
| 2026-05-06 15:08 | 39.30329 | -106.74265 | 14018 ft | 301 kts | 307° |
| 2026-05-06 15:08 | 39.31656 | -106.76361 | 14023 ft | 302 kts | 307° |
| 2026-05-06 15:08 | 39.32965 | -106.78432 | 14017 ft | 302 kts | 308° |
| 2026-05-06 15:08 | 39.34293 | -106.80533 | 14009 ft | 301 kts | 307° |
| 2026-05-06 15:09 | 39.35621 | -106.82631 | 13990 ft | 301 kts | 308° |
| 2026-05-06 15:09 | 39.36954 | -106.84730 | 14018 ft | 302 kts | 308° |
| 2026-05-06 15:09 | 39.38285 | -106.86831 | 13959 ft | 301 kts | 308° |
| 2026-05-06 15:09 | 39.39610 | -106.88926 | 14007 ft | 301 kts | 307° |
| 2026-05-06 15:10 | 39.40761 | -106.91140 | 13988 ft | 288 kts | 295° |
| 2026-05-06 15:10 | 39.41163 | -106.93575 | 13851 ft | 275 kts | 262° |
| 2026-05-06 15:10 | 39.40280 | -106.95716 | 13524 ft | 277 kts | 224° |
| 2026-05-06 15:10 | 39.38516 | -106.96721 | 13022 ft | 285 kts | 187° |
| 2026-05-06 15:11 | 39.36617 | -106.96188 | 12539 ft | 289 kts | 148° |
| 2026-05-06 15:11 | 39.34909 | -106.94885 | 12264 ft | 280 kts | 150° |
| 2026-05-06 15:11 | 39.33262 | -106.93622 | 12023 ft | 271 kts | 149° |
| 2026-05-06 15:11 | 39.31701 | -106.92312 | 11724 ft | 266 kts | 144° |
| 2026-05-06 15:12 | 39.30269 | -106.90783 | 11227 ft | 267 kts | 136° |
| 2026-05-06 15:12 | 39.28803 | -106.89598 | 11208 ft | 232 kts | 162° |
| 2026-05-06 15:12 | 39.27781 | -106.89262 | 10964 ft | 223 kts | 171° |
| 2026-05-06 15:12 | 39.26242 | -106.88797 | 10005 ft | 237 kts | 162° |
| 2026-05-06 15:13 | 39.24657 | -106.87985 | 8760 ft | 256 kts | 160° |
| 2026-05-06 15:13 | 39.22770 | -106.87079 | 8221 ft | 227 kts | 156° |
| 2026-05-06 15:13 | 39.21342 | -106.86423 | 8083 ft | 204 kts | 159° |